Wetterdaten: Montag, 10.09.2012
Datum Zeit Temperatur Luftfeuchte Luftdruck Regen Wind Richtung Richtung Sonnenschein Taupunkt Windchill
10.09.2012 00:03 15,3 C 53 % 1014,7 hPa 0,0 l/m 0,0 km/h (0 Bft) W-SW 250 0 min 5,8 C 15,3 C
10.09.2012 00:08 15,3 C 54 % 1014,7 hPa 0,0 l/m 0,0 km/h (0 Bft) W-SW 245 0 min 6,0 C 15,3 C
10.09.2012 00:13 15,2 C 54 % 1014,7 hPa 0,0 l/m 0,0 km/h (0 Bft) W-SW 250 0 min 6,0 C 15,2 C
10.09.2012 00:18 15,2 C 54 % 1014,7 hPa 0,0 l/m 0,0 km/h (0 Bft) W-SW 250 0 min 6,0 C 15,2 C
10.09.2012 00:23 15,1 C 55 % 1014,7 hPa 0,0 l/m 0,0 km/h (0 Bft) W-SW 250 0 min 6,1 C 15,1 C
10.09.2012 00:28 15,1 C 55 % 1014,7 hPa 0,0 l/m 0,0 km/h (0 Bft) W-SW 250 0 min 6,1 C 15,1 C
10.09.2012 00:33 15,2 C 55 % 1014,7 hPa 0,0 l/m 0,0 km/h (0 Bft) W-SW 250 0 min 6,2 C 15,2 C
10.09.2012 00:38 15,1 C 55 % 1014,7 hPa 0,0 l/m 0,0 km/h (0 Bft) W-SW 250 0 min 6,1 C 15,1 C
10.09.2012 00:43 15,1 C 55 % 1014,7 hPa 0,0 l/m 0,0 km/h (0 Bft) W-SW 250 0 min 6,1 C 15,1 C
10.09.2012 00:48 15,0 C 55 % 1014,7 hPa 0,0 l/m 0,0 km/h (0 Bft) W-SW 250 0 min 6,0 C 15,0 C
10.09.2012 00:53 14,9 C 56 % 1014,7 hPa 0,0 l/m 0,0 km/h (0 Bft) W-SW 245 0 min 6,2 C 14,9 C
10.09.2012 00:58 14,6 C 57 % 1014,7 hPa 0,0 l/m 0,0 km/h (0 Bft) W-SW 250 0 min 6,2 C 14,6 C
10.09.2012 01:03 14,5 C 57 % 1014,7 hPa 0,0 l/m 0,0 km/h (0 Bft) W-SW 250 0 min 6,1 C 14,5 C
10.09.2012 01:08 14,3 C 59 % 1014,7 hPa 0,0 l/m 0,0 km/h (0 Bft) W-SW 245 0 min 6,4 C 14,3 C
10.09.2012 01:13 14,2 C 59 % 1014,7 hPa 0,0 l/m 0,0 km/h (0 Bft) NW 310 0 min 6,3 C 14,2 C
10.09.2012 01:18 14,1 C 59 % 1014,7 hPa 0,0 l/m 0,0 km/h (0 Bft) W 275 0 min 6,2 C 14,1 C
10.09.2012 01:23 14,1 C 60 % 1014,7 hPa 0,0 l/m 0,0 km/h (0 Bft) W-NW 295 0 min 6,5 C 14,1 C
10.09.2012 01:28 13,9 C 61 % 1014,7 hPa 0,0 l/m 0,0 km/h (0 Bft) W 275 0 min 6,5 C 13,9 C
10.09.2012 01:33 13,9 C 61 % 1014,7 hPa 0,0 l/m 0,0 km/h (0 Bft) W 275 0 min 6,5 C 13,9 C
10.09.2012 01:38 13,7 C 61 % 1014,7 hPa 0,0 l/m 0,0 km/h (0 Bft) W 270 0 min 6,3 C 13,7 C
10.09.2012 01:43 13,5 C 63 % 1014,7 hPa 0,0 l/m 0,0 km/h (0 Bft) W 275 0 min 6,6 C 13,5 C
10.09.2012 01:48 13,4 C 62 % 1014,7 hPa 0,0 l/m 0,0 km/h (0 Bft) W 270 0 min 6,3 C 13,4 C
10.09.2012 01:53 13,3 C 62 % 1014,7 hPa 0,0 l/m 0,0 km/h (0 Bft) W 270 0 min 6,2 C 13,3 C
10.09.2012 01:58 13,2 C 62 % 1014,7 hPa 0,0 l/m 0,0 km/h (0 Bft) W 270 0 min 6,1 C 13,2 C
10.09.2012 02:03 13,2 C 61 % 1014,7 hPa 0,0 l/m 0,0 km/h (0 Bft) W 270 0 min 5,8 C 13,2 C
10.09.2012 02:08 13,2 C 61 % 1014,7 hPa 0,0 l/m 0,0 km/h (0 Bft) W 270 0 min 5,8 C 13,2 C
10.09.2012 02:13 13,0 C 62 % 1014,7 hPa 0,0 l/m 0,0 km/h (0 Bft) W 270 0 min 5,9 C 13,0 C
10.09.2012 02:18 13,0 C 61 % 1014,7 hPa 0,0 l/m 0,0 km/h (0 Bft) W 270 0 min 5,7 C 13,0 C
10.09.2012 02:24 12,9 C 62 % 1014,7 hPa 0,0 l/m 0,0 km/h (0 Bft) W 270 0 min 5,8 C 12,9 C
10.09.2012 02:29 12,8 C 62 % 1014,7 hPa 0,0 l/m 0,0 km/h (0 Bft) W 270 0 min 5,7 C 12,8 C
10.09.2012 02:34 12,7 C 62 % 1014,7 hPa 0,0 l/m 0,0 km/h (0 Bft) W 270 0 min 5,6 C 12,7 C
10.09.2012 02:39 12,6 C 62 % 1014,7 hPa 0,0 l/m 0,0 km/h (0 Bft) W 270 0 min 5,5 C 12,6 C
10.09.2012 02:44 12,5 C 62 % 1014,7 hPa 0,0 l/m 0,0 km/h (0 Bft) W 270 0 min 5,4 C 12,5 C
10.09.2012 02:49 12,4 C 62 % 1014,7 hPa 0,0 l/m 0,0 km/h (0 Bft) W 270 0 min 5,3 C 12,4 C
10.09.2012 02:54 12,3 C 62 % 1014,7 hPa 0,0 l/m 0,0 km/h (0 Bft) W 270 0 min 5,2 C 12,3 C
10.09.2012 02:59 12,2 C 62 % 1014,7 hPa 0,0 l/m 0,0 km/h (0 Bft) W 270 0 min 5,1 C 12,2 C
10.09.2012 03:04 12,1 C 62 % 1014,7 hPa 0,0 l/m 0,0 km/h (0 Bft) W 270 0 min 5,0 C 12,1 C
10.09.2012 03:09 12,1 C 62 % 1014,7 hPa 0,0 l/m 0,0 km/h (0 Bft) W 270 0 min 5,0 C 12,1 C
10.09.2012 03:14 12,0 C 62 % 1014,7 hPa 0,0 l/m 0,0 km/h (0 Bft) W 270 0 min 4,9 C 12,0 C
10.09.2012 03:19 12,0 C 62 % 1014,7 hPa 0,0 l/m 0,0 km/h (0 Bft) W 270 0 min 4,9 C 12,0 C
10.09.2012 03:24 11,8 C 63 % 1014,7 hPa 0,0 l/m 0,0 km/h (0 Bft) W 270 0 min 5,0 C 11,8 C
10.09.2012 03:29 11,8 C 63 % 1014,7 hPa 0,0 l/m 0,0 km/h (0 Bft) W 270 0 min 5,0 C 11,8 C
10.09.2012 03:34 11,7 C 63 % 1014,7 hPa 0,0 l/m 0,0 km/h (0 Bft) W 270 0 min 4,9 C 11,7 C
10.09.2012 03:39 11,6 C 63 % 1014,7 hPa 0,0 l/m 0,0 km/h (0 Bft) W 270 0 min 4,8 C 11,6 C
10.09.2012 03:44 11,5 C 63 % 1014,7 hPa 0,0 l/m 0,0 km/h (0 Bft) W 270 0 min 4,7 C 11,5 C
10.09.2012 03:49 11,4 C 63 % 1014,7 hPa 0,0 l/m 0,0 km/h (0 Bft) W 270 0 min 4,6 C 11,4 C
10.09.2012 03:54 11,4 C 63 % 1014,7 hPa 0,0 l/m 0,0 km/h (0 Bft) W 270 0 min 4,6 C 11,4 C
10.09.2012 03:59 11,3 C 63 % 1014,7 hPa 0,0 l/m 0,0 km/h (0 Bft) W 270 0 min 4,5 C 11,3 C
10.09.2012 04:04 11,3 C 64 % 1014,7 hPa 0,0 l/m 0,0 km/h (0 Bft) W 270 0 min 4,7 C 11,3 C
10.09.2012 04:09 11,2 C 64 % 1014,7 hPa 0,0 l/m 0,0 km/h (0 Bft) W 270 0 min 4,6 C 11,2 C
10.09.2012 04:14 11,2 C 64 % 1014,7 hPa 0,0 l/m 0,0 km/h (0 Bft) W 270 0 min 4,6 C 11,2 C
10.09.2012 04:19 11,1 C 64 % 1014,7 hPa 0,0 l/m 0,0 km/h (0 Bft) W 270 0 min 4,6 C 11,1 C
10.09.2012 04:24 11,0 C 64 % 1014,7 hPa 0,0 l/m 0,0 km/h (0 Bft) W 270 0 min 4,5 C 11,0 C
10.09.2012 04:29 10,9 C 65 % 1014,7 hPa 0,0 l/m 0,0 km/h (0 Bft) W 270 0 min 4,6 C 10,9 C
10.09.2012 04:34 10,8 C 65 % 1014,7 hPa 0,0 l/m 0,0 km/h (0 Bft) W 270 0 min 4,5 C 10,8 C
10.09.2012 04:39 10,8 C 65 % 1014,7 hPa 0,0 l/m 0,0 km/h (0 Bft) W 270 0 min 4,5 C 10,8 C
10.09.2012 04:44 10,7 C 65 % 1014,7 hPa 0,0 l/m 0,0 km/h (0 Bft) W 270 0 min 4,4 C 10,7 C
10.09.2012 04:49 10,6 C 65 % 1014,7 hPa 0,0 l/m 0,0 km/h (0 Bft) W 270 0 min 4,3 C 10,6 C
10.09.2012 04:54 10,5 C 65 % 1014,7 hPa 0,0 l/m 0,0 km/h (0 Bft) W 270 0 min 4,2 C 10,5 C
10.09.2012 04:59 10,4 C 65 % 1014,7 hPa 0,0 l/m 0,0 km/h (0 Bft) W 270 0 min 4,1 C 10,4 C
10.09.2012 05:04 10,4 C 65 % 1014,7 hPa 0,0 l/m 0,0 km/h (0 Bft) W 270 0 min 4,1 C 10,4 C
10.09.2012 05:09 10,4 C 65 % 1014,7 hPa 0,0 l/m 0,0 km/h (0 Bft) W 270 0 min 4,1 C 10,4 C
10.09.2012 05:14 10,3 C 65 % 1014,7 hPa 0,0 l/m 0,0 km/h (0 Bft) W 270 0 min 4,0 C 10,3 C
10.09.2012 05:19 10,2 C 66 % 1014,7 hPa 0,0 l/m 0,0 km/h (0 Bft) W 270 0 min 4,1 C 10,2 C
10.09.2012 05:24 10,2 C 66 % 1014,7 hPa 0,0 l/m 0,0 km/h (0 Bft) W 270 0 min 4,1 C 10,2 C
10.09.2012 05:29 10,2 C 66 % 1014,7 hPa 0,0 l/m 0,0 km/h (0 Bft) W 270 0 min 4,1 C 10,2 C
10.09.2012 05:34 10,2 C 66 % 1014,7 hPa 0,0 l/m 0,0 km/h (0 Bft) W 270 0 min 4,1 C 10,2 C
10.09.2012 05:39 10,2 C 66 % 1014,7 hPa 0,0 l/m 0,0 km/h (0 Bft) W 270 0 min 4,1 C 10,2 C
10.09.2012 05:44 10,2 C 66 % 1014,7 hPa 0,0 l/m 0,0 km/h (0 Bft) W 270 0 min 4,1 C 10,2 C
10.09.2012 05:48 10,0 C 66 % 1014,7 hPa 0,0 l/m 0,0 km/h (0 Bft) W 270 0 min 3,9 C 10,0 C
10.09.2012 05:53 9,9 C 67 % 1014,7 hPa 0,0 l/m 0,0 km/h (0 Bft) W 270 0 min 4,1 C 9,9 C
10.09.2012 05:58 9,8 C 67 % 1014,7 hPa 0,0 l/m 0,0 km/h (0 Bft) W 270 0 min 4,0 C 9,8 C
10.09.2012 06:03 9,8 C 67 % 1014,7 hPa 0,0 l/m 0,0 km/h (0 Bft) W 270 0 min 4,0 C 9,8 C
10.09.2012 06:08 9,7 C 67 % 1014,7 hPa 0,0 l/m 0,0 km/h (0 Bft) W 270 0 min 3,9 C 9,7 C
10.09.2012 06:13 9,7 C 67 % 1014,7 hPa 0,0 l/m 0,0 km/h (0 Bft) W 270 0 min 3,9 C 9,7 C
10.09.2012 06:18 9,6 C 67 % 1014,7 hPa 0,0 l/m 0,0 km/h (0 Bft) W 270 0 min 3,8 C 9,6 C
10.09.2012 06:23 9,7 C 68 % 1014,7 hPa 0,0 l/m 0,0 km/h (0 Bft) W 270 0 min 4,1 C 9,7 C
10.09.2012 06:28 9,7 C 68 % 1014,7 hPa 0,0 l/m 0,0 km/h (0 Bft) W 270 0 min 4,1 C 9,7 C
10.09.2012 06:33 9,6 C 68 % 1014,7 hPa 0,0 l/m 0,0 km/h (0 Bft) W 270 0 min 4,0 C 9,6 C
10.09.2012 06:38 9,6 C 68 % 1014,7 hPa 0,0 l/m 0,0 km/h (0 Bft) W 270 0 min 4,0 C 9,6 C
10.09.2012 06:43 9,7 C 68 % 1014,7 hPa 0,0 l/m 0,0 km/h (0 Bft) W 270 0 min 4,1 C 9,7 C
10.09.2012 06:48 9,7 C 68 % 1014,7 hPa 0,0 l/m 0,0 km/h (0 Bft) W 270 0 min 4,1 C 9,7 C
10.09.2012 06:54 9,7 C 68 % 1014,7 hPa 0,0 l/m 0,0 km/h (0 Bft) W 270 0 min 4,1 C 9,7 C
10.09.2012 06:59 9,8 C 68 % 1014,7 hPa 0,0 l/m 0,0 km/h (0 Bft) W 270 0 min 4,2 C 9,8 C
10.09.2012 07:03 9,8 C 68 % 1014,7 hPa 0,0 l/m 0,0 km/h (0 Bft) W 270 0 min 4,2 C 9,8 C
10.09.2012 07:08 9,8 C 68 % 1014,7 hPa 0,0 l/m 0,0 km/h (0 Bft) W 270 0 min 4,2 C 9,8 C
10.09.2012 07:13 9,9 C 68 % 1014,7 hPa 0,0 l/m 0,0 km/h (0 Bft) W 270 0 min 4,3 C 9,9 C
10.09.2012 07:19 10,0 C 67 % 1014,7 hPa 0,0 l/m 0,0 km/h (0 Bft) W 270 0 min 4,2 C 10,0 C
10.09.2012 07:24 10,5 C 69 % 1014,7 hPa 0,0 l/m 0,0 km/h (0 Bft) W 270 0 min 5,1 C 10,5 C
10.09.2012 07:29 11,5 C 71 % 1014,7 hPa 0,0 l/m 0,0 km/h (0 Bft) SW 230 0 min 6,4 C 11,5 C
10.09.2012 07:34 11,8 C 71 % 1014,7 hPa 0,0 l/m 0,0 km/h (0 Bft) SW 230 0 min 6,7 C 11,8 C
10.09.2012 07:38 12,4 C 71 % 1014,7 hPa 0,0 l/m 0,0 km/h (0 Bft) SW 230 0 min 7,3 C 12,4 C
10.09.2012 07:43 12,8 C 71 % 1014,7 hPa 0,0 l/m 0,0 km/h (0 Bft) SW 230 0 min 7,7 C 12,8 C
10.09.2012 07:48 13,0 C 70 % 1014,7 hPa 0,0 l/m 0,0 km/h (0 Bft) SW 230 0 min 7,7 C 13,0 C
10.09.2012 07:53 13,2 C 70 % 1014,7 hPa 0,0 l/m 0,0 km/h (0 Bft) SW 230 0 min 7,9 C 13,2 C
10.09.2012 07:59 13,4 C 69 % 1014,7 hPa 0,0 l/m 0,0 km/h (0 Bft) SW 230 0 min 7,8 C 13,4 C
10.09.2012 08:04 13,8 C 68 % 1014,7 hPa 0,0 l/m 0,0 km/h (0 Bft) SW 230 0 min 8,0 C 13,8 C
10.09.2012 08:09 13,8 C 67 % 1014,7 hPa 0,0 l/m 0,0 km/h (0 Bft) SW 230 0 min 7,8 C 13,8 C
10.09.2012 08:13 13,6 C 65 % 1014,7 hPa 0,0 l/m 0,0 km/h (0 Bft) SW 230 0 min 7,1 C 13,6 C
10.09.2012 08:18 13,5 C 64 % 1015,7 hPa 0,0 l/m 0,0 km/h (0 Bft) SW 230 0 min 6,8 C 13,5 C
10.09.2012 08:23 13,5 C 64 % 1014,7 hPa 0,0 l/m 0,0 km/h (0 Bft) SW 230 0 min 6,8 C 13,5 C
10.09.2012 08:28 13,7 C 64 % 1015,7 hPa 0,0 l/m 0,0 km/h (0 Bft) SW 230 0 min 7,0 C 13,7 C
10.09.2012 08:34 13,7 C 64 % 1015,7 hPa 0,0 l/m 0,0 km/h (0 Bft) SW 230 0 min 7,0 C 13,7 C
10.09.2012 08:39 13,8 C 64 % 1015,7 hPa 0,0 l/m 0,0 km/h (0 Bft) SW 230 0 min 7,1 C 13,8 C
10.09.2012 08:44 13,9 C 64 % 1015,7 hPa 0,0 l/m 0,0 km/h (0 Bft) SW 230 0 min 7,2 C 13,9 C
10.09.2012 08:48 14,1 C 63 % 1015,7 hPa 0,0 l/m 0,0 km/h (0 Bft) SW 230 0 min 7,2 C 14,1 C
10.09.2012 08:53 14,6 C 64 % 1015,7 hPa 0,0 l/m 0,0 km/h (0 Bft) SW 230 0 min 7,9 C 14,6 C
10.09.2012 08:58 14,9 C 64 % 1015,7 hPa 0,0 l/m 0,0 km/h (0 Bft) SW 230 0 min 8,2 C 14,9 C
10.09.2012 09:03 15,0 C 62 % 1015,7 hPa 0,0 l/m 0,0 km/h (0 Bft) SW 230 0 min 7,8 C 15,0 C
10.09.2012 09:08 14,9 C 63 % 1015,7 hPa 0,0 l/m 0,0 km/h (0 Bft) SW 230 0 min 7,9 C 14,9 C
10.09.2012 09:13 15,0 C 62 % 1015,7 hPa 0,0 l/m 0,0 km/h (0 Bft) SW 230 0 min 7,8 C 15,0 C
10.09.2012 09:18 15,2 C 63 % 1015,7 hPa 0,0 l/m 0,0 km/h (0 Bft) SW 235 0 min 8,2 C 15,2 C
10.09.2012 09:23 15,2 C 63 % 1015,7 hPa 0,0 l/m 0,0 km/h (0 Bft) SW 230 0 min 8,2 C 15,2 C
10.09.2012 09:28 15,4 C 63 % 1015,7 hPa 0,0 l/m 0,0 km/h (0 Bft) SW 230 0 min 8,4 C 15,4 C
10.09.2012 09:33 15,8 C 63 % 1015,7 hPa 0,0 l/m 0,0 km/h (0 Bft) W-SW 240 0 min 8,8 C 15,8 C
10.09.2012 09:38 16,4 C 63 % 1015,7 hPa 0,0 l/m 0,0 km/h (0 Bft) SW 235 0 min 9,3 C 16,4 C
10.09.2012 09:43 16,7 C 63 % 1015,7 hPa 0,0 l/m 0,0 km/h (0 Bft) SW 235 0 min 9,6 C 16,7 C
10.09.2012 09:48 17,2 C 61 % 1015,7 hPa 0,0 l/m 0,0 km/h (0 Bft) SW 230 0 min 9,6 C 17,2 C
10.09.2012 09:53 17,2 C 61 % 1015,7 hPa 0,0 l/m 0,0 km/h (0 Bft) SW 230 0 min 9,6 C 17,2 C
10.09.2012 09:59 17,4 C 61 % 1015,7 hPa 0,0 l/m 0,0 km/h (0 Bft) W-SW 240 0 min 9,8 C 17,4 C
10.09.2012 10:04 17,5 C 61 % 1015,7 hPa 0,0 l/m 0,0 km/h (0 Bft) SW 235 0 min 9,9 C 17,5 C
10.09.2012 10:09 17,4 C 61 % 1015,7 hPa 0,0 l/m 0,0 km/h (0 Bft) SW 230 0 min 9,8 C 17,4 C
10.09.2012 10:14 17,5 C 61 % 1015,7 hPa 0,0 l/m 0,0 km/h (0 Bft) SW 235 0 min 9,9 C 17,5 C
10.09.2012 10:19 17,6 C 61 % 1015,7 hPa 0,0 l/m 0,0 km/h (0 Bft) SW 235 0 min 10,0 C 17,6 C
10.09.2012 10:23 17,9 C 61 % 1015,7 hPa 0,0 l/m 0,0 km/h (0 Bft) SW 230 0 min 10,3 C 17,9 C
10.09.2012 10:28 18,2 C 60 % 1015,7 hPa 0,0 l/m 0,0 km/h (0 Bft) SW 230 0 min 10,3 C 18,2 C
10.09.2012 10:33 18,3 C 60 % 1015,7 hPa 0,0 l/m 0,0 km/h (0 Bft) SW 230 0 min 10,4 C 18,3 C
10.09.2012 10:39 18,7 C 60 % 1015,7 hPa 0,0 l/m 0,0 km/h (0 Bft) SW 230 0 min 10,8 C 18,7 C
10.09.2012 10:44 19,4 C 60 % 1015,7 hPa 0,0 l/m 0,0 km/h (0 Bft) SW 230 0 min 11,4 C 19,4 C
10.09.2012 10:49 19,8 C 60 % 1015,7 hPa 0,0 l/m 0,0 km/h (0 Bft) SW 230 0 min 11,8 C 19,8 C
10.09.2012 10:54 20,3 C 59 % 1015,7 hPa 0,0 l/m 0,0 km/h (0 Bft) SW 230 0 min 12,0 C 20,3 C
10.09.2012 10:58 20,5 C 58 % 1015,7 hPa 0,0 l/m 0,0 km/h (0 Bft) SW 230 0 min 11,9 C 20,5 C
10.09.2012 11:03 21,3 C 58 % 1015,7 hPa 0,0 l/m 0,0 km/h (0 Bft) SW 235 0 min 12,7 C 21,3 C
10.09.2012 11:08 21,6 C 57 % 1015,7 hPa 0,0 l/m 0,0 km/h (0 Bft) W 260 0 min 12,7 C 21,6 C
10.09.2012 11:14 21,8 C 57 % 1015,7 hPa 0,0 l/m 0,0 km/h (0 Bft) W 265 0 min 12,9 C 21,8 C
10.09.2012 11:19 22,2 C 56 % 1015,7 hPa 0,0 l/m 0,6 km/h (0 Bft) SW 215 0 min 13,0 C 22,2 C
10.09.2012 11:24 22,4 C 56 % 1015,7 hPa 0,0 l/m 0,0 km/h (0 Bft) S 180 0 min 13,2 C 22,4 C
10.09.2012 11:28 22,8 C 55 % 1015,7 hPa 0,0 l/m 0,0 km/h (0 Bft) S 185 0 min 13,3 C 22,8 C
10.09.2012 11:33 23,2 C 53 % 1015,7 hPa 0,0 l/m 0,0 km/h (0 Bft) SW 225 0 min 13,1 C 23,2 C
10.09.2012 11:38 23,4 C 52 % 1015,7 hPa 0,0 l/m 0,0 km/h (0 Bft) O-SO 120 0 min 13,0 C 23,4 C
10.09.2012 11:44 23,5 C 51 % 1015,7 hPa 0,0 l/m 0,0 km/h (0 Bft) O-SO 120 0 min 12,8 C 23,5 C
10.09.2012 11:48 23,9 C 48 % 1015,7 hPa 0,0 l/m 0,5 km/h (0 Bft) SO 145 0 min 12,2 C 23,9 C
10.09.2012 11:53 24,1 C 46 % 1015,7 hPa 0,0 l/m 5,5 km/h (1 Bft) S 180 0 min 11,7 C 24,1 C
10.09.2012 11:58 24,2 C 46 % 1015,7 hPa 0,0 l/m 0,2 km/h (0 Bft) SW 215 0 min 11,8 C 24,2 C
10.09.2012 12:03 24,4 C 46 % 1015,7 hPa 0,0 l/m 0,7 km/h (0 Bft) SO 145 0 min 12,0 C 24,4 C
10.09.2012 12:08 25,2 C 46 % 1015,7 hPa 0,0 l/m 0,1 km/h (0 Bft) S-SW 205 0 min 12,7 C 25,2 C
10.09.2012 12:13 25,5 C 47 % 1015,7 hPa 0,0 l/m 0,1 km/h (0 Bft) S-SW 210 0 min 13,3 C 25,5 C
10.09.2012 12:18 25,8 C 46 % 1015,7 hPa 0,0 l/m 0,0 km/h (0 Bft) S 175 0 min 13,3 C 25,8 C
10.09.2012 12:23 25,9 C 45 % 1015,7 hPa 0,0 l/m 0,0 km/h (0 Bft) S 185 0 min 13,0 C 25,9 C
10.09.2012 12:28 25,9 C 44 % 1015,7 hPa 0,0 l/m 0,0 km/h (0 Bft) S-SW 205 0 min 12,7 C 25,9 C
10.09.2012 12:33 26,2 C 44 % 1015,7 hPa 0,0 l/m 0,0 km/h (0 Bft) S-SW 205 0 min 13,0 C 26,2 C
10.09.2012 12:38 26,4 C 42 % 1015,7 hPa 0,0 l/m 0,6 km/h (0 Bft) S-SW 195 0 min 12,4 C 26,4 C
10.09.2012 12:43 26,3 C 40 % 1015,7 hPa 0,0 l/m 0,0 km/h (0 Bft) S-SW 205 0 min 11,6 C 26,3 C
10.09.2012 12:48 26,2 C 40 % 1015,7 hPa 0,0 l/m 5,2 km/h (1 Bft) W-NW 300 0 min 11,5 C 26,2 C
10.09.2012 12:53 26,2 C 40 % 1015,7 hPa 0,0 l/m 7,8 km/h (2 Bft) NW 320 0 min 11,5 C 25,9 C
10.09.2012 12:58 26,7 C 41 % 1015,7 hPa 0,0 l/m 0,3 km/h (0 Bft) SW 225 0 min 12,3 C 26,7 C
10.09.2012 13:03 26,9 C 41 % 1015,7 hPa 0,0 l/m 0,8 km/h (0 Bft) W 270 0 min 12,5 C 26,9 C
10.09.2012 13:08 26,8 C 39 % 1015,7 hPa 0,0 l/m 1,3 km/h (1 Bft) W 270 0 min 11,7 C 26,8 C
10.09.2012 13:14 27,4 C 40 % 1015,7 hPa 0,0 l/m 0,1 km/h (0 Bft) SW 225 0 min 12,6 C 27,4 C
10.09.2012 13:19 27,6 C 39 % 1015,7 hPa 0,0 l/m 8,3 km/h (2 Bft) W 260 0 min 12,4 C 27,3 C
10.09.2012 13:24 27,7 C 38 % 1015,7 hPa 0,0 l/m 11,0 km/h (2 Bft) W-NW 290 0 min 12,1 C 27,0 C
10.09.2012 13:29 27,6 C 33 % 1015,7 hPa 0,0 l/m 10,8 km/h (2 Bft) NW 320 0 min 9,9 C 26,9 C
10.09.2012 13:34 27,4 C 32 % 1015,7 hPa 0,0 l/m 12,2 km/h (2 Bft) NW 315 0 min 9,2 C 26,5 C
10.09.2012 13:39 27,5 C 32 % 1015,7 hPa 0,0 l/m 10,3 km/h (2 Bft) N-NW 330 0 min 9,3 C 26,9 C
10.09.2012 13:44 27,9 C 34 % 1015,7 hPa 0,0 l/m 7,8 km/h (2 Bft) W 265 0 min 10,6 C 27,7 C
10.09.2012 13:49 28,0 C 33 % 1015,7 hPa 0,0 l/m 8,7 km/h (2 Bft) NW 315 0 min 10,2 C 27,6 C
10.09.2012 13:54 28,2 C 34 % 1015,7 hPa 0,0 l/m 1,3 km/h (1 Bft) SW 230 0 min 10,8 C 28,2 C
10.09.2012 13:59 28,3 C 33 % 1015,7 hPa 0,0 l/m 5,6 km/h (1 Bft) W-NW 290 0 min 10,5 C 28,3 C
10.09.2012 14:04 28,4 C 34 % 1015,7 hPa 0,0 l/m 6,3 km/h (2 Bft) NW 305 0 min 11,0 C 28,4 C
10.09.2012 14:09 28,8 C 34 % 1015,7 hPa 0,0 l/m 0,1 km/h (0 Bft) SW 215 0 min 11,4 C 28,8 C
10.09.2012 14:14 29,0 C 33 % 1015,7 hPa 0,0 l/m 1,8 km/h (1 Bft) NW 315 0 min 11,1 C 29,0 C
10.09.2012 14:19 29,1 C 31 % 1015,7 hPa 0,0 l/m 8,9 km/h (2 Bft) W-NW 285 0 min 10,2 C 28,8 C
10.09.2012 14:24 29,2 C 32 % 1015,7 hPa 0,0 l/m 11,2 km/h (2 Bft) N-NW 335 0 min 10,8 C 28,7 C
10.09.2012 14:29 29,1 C 30 % 1015,7 hPa 0,0 l/m 15,1 km/h (3 Bft) N-NW 340 0 min 9,7 C 28,3 C
10.09.2012 14:34 29,4 C 31 % 1015,7 hPa 0,0 l/m 13,0 km/h (3 Bft) W-NW 300 0 min 10,5 C 28,8 C
10.09.2012 14:39 29,6 C 30 % 1015,7 hPa 0,0 l/m 14,6 km/h (3 Bft) NW 325 0 min 10,2 C 28,9 C
10.09.2012 14:44 29,5 C 30 % 1015,7 hPa 0,0 l/m 17,3 km/h (3 Bft) NW 320 0 min 10,1 C 28,6 C
10.09.2012 14:49 29,6 C 30 % 1015,7 hPa 0,0 l/m 14,3 km/h (3 Bft) N-NW 340 0 min 10,2 C 28,9 C
10.09.2012 14:54 29,3 C 29 % 1015,7 hPa 0,0 l/m 15,1 km/h (3 Bft) N-NW 340 0 min 9,4 C 28,5 C
10.09.2012 14:59 29,1 C 29 % 1014,7 hPa 0,0 l/m 12,5 km/h (3 Bft) NW 310 0 min 9,2 C 28,5 C
10.09.2012 15:04 29,3 C 30 % 1014,7 hPa 0,0 l/m 13,1 km/h (3 Bft) NW 310 0 min 9,9 C 28,7 C
10.09.2012 15:09 30,0 C 31 % 1014,7 hPa 0,0 l/m 0,9 km/h (0 Bft) W 280 0 min 11,0 C 30,0 C
10.09.2012 15:14 30,0 C 30 % 1014,7 hPa 0,0 l/m 1,0 km/h (0 Bft) S-SW 210 0 min 10,5 C 30,0 C
10.09.2012 15:19 30,0 C 28 % 1014,7 hPa 0,0 l/m 18,3 km/h (3 Bft) N-NW 345 0 min 9,5 C 29,2 C
10.09.2012 15:24 29,4 C 28 % 1014,7 hPa 0,0 l/m 16,7 km/h (3 Bft) N-NW 340 0 min 9,0 C 28,5 C
10.09.2012 15:29 29,6 C 29 % 1014,7 hPa 0,0 l/m 15,0 km/h (3 Bft) NW 305 0 min 9,7 C 28,9 C
10.09.2012 15:34 30,4 C 27 % 1014,7 hPa 0,0 l/m 14,9 km/h (3 Bft) NW 315 0 min 9,3 C 29,9 C
10.09.2012 15:39 30,5 C 26 % 1014,7 hPa 0,0 l/m 13,5 km/h (3 Bft) NW 325 0 min 8,8 C 30,0 C
10.09.2012 15:44 29,7 C 26 % 1014,7 hPa 0,0 l/m 16,5 km/h (3 Bft) N-NW 345 0 min 8,1 C 28,9 C
10.09.2012 15:49 29,4 C 26 % 1014,7 hPa 0,0 l/m 14,5 km/h (3 Bft) N-NW 330 0 min 7,9 C 28,7 C
10.09.2012 15:54 28,9 C 28 % 1014,7 hPa 0,0 l/m 14,2 km/h (3 Bft) W-NW 300 0 min 8,5 C 28,1 C
10.09.2012 15:59 29,1 C 29 % 1014,7 hPa 0,0 l/m 8,8 km/h (2 Bft) W-NW 295 0 min 9,2 C 28,8 C
10.09.2012 16:04 29,2 C 30 % 1014,7 hPa 0,0 l/m 0,6 km/h (0 Bft) W-SW 250 0 min 9,8 C 29,2 C
10.09.2012 16:09 29,7 C 30 % 1014,7 hPa 0,0 l/m 5,4 km/h (1 Bft) W-NW 295 0 min 10,3 C 29,7 C
10.09.2012 16:14 30,2 C 28 % 1014,7 hPa 0,0 l/m 7,5 km/h (2 Bft) W-NW 290 0 min 9,6 C 30,1 C
10.09.2012 16:19 29,8 C 27 % 1014,7 hPa 0,0 l/m 15,0 km/h (3 Bft) NW 325 0 min 8,8 C 29,1 C
10.09.2012 16:24 29,4 C 27 % 1014,7 hPa 0,0 l/m 16,8 km/h (3 Bft) NW 310 0 min 8,4 C 28,5 C
10.09.2012 16:29 29,4 C 29 % 1014,7 hPa 0,0 l/m 8,5 km/h (2 Bft) NW 310 0 min 9,5 C 29,2 C
10.09.2012 16:34 30,4 C 27 % 1014,7 hPa 0,0 l/m 10,0 km/h (2 Bft) W-NW 290 0 min 9,3 C 30,1 C
10.09.2012 16:39 30,4 C 25 % 1014,7 hPa 0,0 l/m 12,3 km/h (3 Bft) NW 315 0 min 8,1 C 30,0 C
10.09.2012 16:44 30,3 C 25 % 1014,7 hPa 0,0 l/m 14,5 km/h (3 Bft) N-NW 335 0 min 8,1 C 29,8 C
10.09.2012 16:49 30,8 C 26 % 1014,7 hPa 0,0 l/m 11,1 km/h (2 Bft) NW 305 0 min 9,1 C 30,5 C
10.09.2012 16:54 30,8 C 25 % 1014,7 hPa 0,0 l/m 12,0 km/h (2 Bft) NW 315 0 min 8,5 C 30,5 C
10.09.2012 16:59 31,1 C 25 % 1014,7 hPa 0,0 l/m 7,3 km/h (2 Bft) NW 305 0 min 8,7 C 31,0 C
10.09.2012 17:03 31,0 C 24 % 1014,7 hPa 0,0 l/m 17,1 km/h (3 Bft) NW 310 0 min 8,0 C 30,5 C
10.09.2012 17:08 30,8 C 26 % 1014,7 hPa 0,0 l/m 13,9 km/h (3 Bft) W-NW 285 0 min 9,1 C 30,4 C
10.09.2012 17:13 30,9 C 26 % 1014,7 hPa 0,0 l/m 14,2 km/h (3 Bft) NW 315 0 min 9,1 C 30,5 C
10.09.2012 17:18 30,8 C 25 % 1014,7 hPa 0,0 l/m 14,8 km/h (3 Bft) NW 310 0 min 8,5 C 30,3 C
10.09.2012 17:23 30,3 C 25 % 1014,7 hPa 0,0 l/m 9,8 km/h (2 Bft) NW 310 0 min 8,1 C 30,0 C
10.09.2012 17:28 29,6 C 26 % 1014,7 hPa 0,0 l/m 10,1 km/h (2 Bft) W-NW 290 0 min 8,0 C 29,2 C
10.09.2012 17:33 29,7 C 27 % 1014,7 hPa 0,0 l/m 11,2 km/h (2 Bft) W-NW 290 0 min 8,7 C 29,3 C
10.09.2012 17:38 30,0 C 27 % 1014,7 hPa 0,0 l/m 12,1 km/h (2 Bft) W-NW 295 0 min 8,9 C 29,5 C
10.09.2012 17:43 30,3 C 26 % 1014,7 hPa 0,0 l/m 11,8 km/h (2 Bft) W-NW 300 0 min 8,6 C 29,9 C
10.09.2012 17:48 30,0 C 26 % 1014,7 hPa 0,0 l/m 13,0 km/h (3 Bft) W-NW 300 0 min 8,4 C 29,5 C
10.09.2012 17:53 29,4 C 27 % 1014,7 hPa 0,0 l/m 13,0 km/h (3 Bft) W-NW 300 0 min 8,4 C 28,8 C
10.09.2012 17:58 29,3 C 28 % 1014,7 hPa 0,0 l/m 0,9 km/h (0 Bft) W-SW 245 0 min 8,9 C 29,3 C
10.09.2012 18:03 29,2 C 28 % 1014,7 hPa 0,0 l/m 10,3 km/h (2 Bft) W-NW 285 0 min 8,8 C 28,8 C
10.09.2012 18:08 28,7 C 29 % 1014,7 hPa 0,0 l/m 10,3 km/h (2 Bft) W-NW 285 0 min 8,9 C 28,2 C
10.09.2012 18:14 28,5 C 29 % 1014,7 hPa 0,0 l/m 7,9 km/h (2 Bft) W 275 0 min 8,7 C 28,3 C
10.09.2012 18:19 28,5 C 30 % 1014,7 hPa 0,0 l/m 0,5 km/h (0 Bft) W-SW 245 0 min 9,2 C 28,5 C
10.09.2012 18:24 28,5 C 30 % 1014,7 hPa 0,0 l/m 1,3 km/h (1 Bft) W 270 0 min 9,2 C 28,5 C
10.09.2012 18:29 28,4 C 30 % 1014,7 hPa 0,0 l/m 4,4 km/h (1 Bft) W 265 0 min 9,1 C 28,4 C
10.09.2012 18:34 28,1 C 30 % 1014,7 hPa 0,0 l/m 11,3 km/h (2 Bft) W-NW 290 0 min 8,9 C 27,4 C
10.09.2012 18:38 27,9 C 31 % 1014,7 hPa 0,0 l/m 12,3 km/h (3 Bft) W 270 0 min 9,2 C 27,1 C
10.09.2012 18:43 27,8 C 31 % 1014,7 hPa 0,0 l/m 0,1 km/h (0 Bft) S-SW 205 0 min 9,1 C 27,8 C
10.09.2012 18:48 27,8 C 31 % 1014,7 hPa 0,0 l/m 0,0 km/h (0 Bft) S-SW 200 0 min 9,1 C 27,8 C
10.09.2012 18:54 27,6 C 31 % 1014,7 hPa 0,0 l/m 0,0 km/h (0 Bft) S-SW 200 0 min 8,9 C 27,6 C
10.09.2012 18:59 27,5 C 31 % 1014,7 hPa 0,0 l/m 0,0 km/h (0 Bft) S-SW 200 0 min 8,8 C 27,5 C
10.09.2012 19:04 27,3 C 31 % 1014,7 hPa 0,0 l/m 0,1 km/h (0 Bft) S-SW 210 0 min 8,7 C 27,3 C
10.09.2012 19:09 27,0 C 32 % 1014,7 hPa 0,0 l/m 0,0 km/h (0 Bft) S-SW 200 0 min 8,9 C 27,0 C
10.09.2012 19:13 26,7 C 32 % 1014,7 hPa 0,0 l/m 0,0 km/h (0 Bft) S 180 0 min 8,6 C 26,7 C
10.09.2012 19:18 26,5 C 32 % 1014,7 hPa 0,0 l/m 0,0 km/h (0 Bft) S 185 0 min 8,4 C 26,5 C
10.09.2012 19:23 26,0 C 33 % 1014,7 hPa 0,0 l/m 0,0 km/h (0 Bft) S-SW 195 0 min 8,5 C 26,0 C
10.09.2012 19:29 25,5 C 34 % 1014,7 hPa 0,0 l/m 0,0 km/h (0 Bft) S-SW 195 0 min 8,5 C 25,5 C
10.09.2012 19:34 25,0 C 34 % 1014,7 hPa 0,0 l/m 0,0 km/h (0 Bft) S 185 0 min 8,0 C 25,0 C
10.09.2012 19:39 24,7 C 35 % 1014,7 hPa 0,0 l/m 0,0 km/h (0 Bft) S 185 0 min 8,2 C 24,7 C
10.09.2012 19:44 24,2 C 35 % 1014,7 hPa 0,0 l/m 0,0 km/h (0 Bft) S 185 0 min 7,8 C 24,2 C
10.09.2012 19:49 23,6 C 36 % 1014,7 hPa 0,0 l/m 0,0 km/h (0 Bft) S 180 0 min 7,6 C 23,6 C
10.09.2012 19:54 23,4 C 36 % 1014,7 hPa 0,0 l/m 0,0 km/h (0 Bft) S 185 0 min 7,5 C 23,4 C
10.09.2012 19:59 22,9 C 38 % 1014,7 hPa 0,0 l/m 0,0 km/h (0 Bft) S 185 0 min 7,8 C 22,9 C
10.09.2012 20:04 22,4 C 38 % 1014,7 hPa 0,0 l/m 0,0 km/h (0 Bft) S 190 0 min 7,4 C 22,4 C
10.09.2012 20:09 22,2 C 38 % 1014,7 hPa 0,0 l/m 0,0 km/h (0 Bft) S 185 0 min 7,2 C 22,2 C
10.09.2012 20:14 21,9 C 39 % 1014,7 hPa 0,0 l/m 0,0 km/h (0 Bft) S 190 0 min 7,3 C 21,9 C
10.09.2012 20:19 21,6 C 40 % 1014,7 hPa 0,0 l/m 0,0 km/h (0 Bft) S-SW 205 0 min 7,4 C 21,6 C
10.09.2012 20:24 21,4 C 40 % 1014,7 hPa 0,0 l/m 0,0 km/h (0 Bft) S-SW 195 0 min 7,2 C 21,4 C
10.09.2012 20:29 21,1 C 40 % 1014,7 hPa 0,0 l/m 0,0 km/h (0 Bft) S 185 0 min 7,0 C 21,1 C
10.09.2012 20:34 20,8 C 41 % 1014,7 hPa 0,0 l/m 0,0 km/h (0 Bft) S 180 0 min 7,1 C 20,8 C
10.09.2012 20:39 20,5 C 41 % 1014,7 hPa 0,0 l/m 0,0 km/h (0 Bft) S 180 0 min 6,8 C 20,5 C
10.09.2012 20:44 20,4 C 41 % 1014,7 hPa 0,0 l/m 0,0 km/h (0 Bft) S 180 0 min 6,7 C 20,4 C
10.09.2012 20:49 20,2 C 42 % 1014,7 hPa 0,0 l/m 0,0 km/h (0 Bft) S 180 0 min 6,9 C 20,2 C
10.09.2012 20:54 20,0 C 42 % 1014,7 hPa 0,0 l/m 0,0 km/h (0 Bft) S 180 0 min 6,7 C 20,0 C
10.09.2012 20:59 19,8 C 43 % 1014,7 hPa 0,0 l/m 0,0 km/h (0 Bft) S 180 0 min 6,9 C 19,8 C
10.09.2012 21:04 19,6 C 44 % 1014,7 hPa 0,0 l/m 0,0 km/h (0 Bft) S 180 0 min 7,0 C 19,6 C
10.09.2012 21:09 19,3 C 44 % 1014,7 hPa 0,0 l/m 0,0 km/h (0 Bft) S 180 0 min 6,7 C 19,3 C
10.09.2012 21:14 19,2 C 44 % 1014,7 hPa 0,0 l/m 0,0 km/h (0 Bft) S 180 0 min 6,7 C 19,2 C
10.09.2012 21:19 19,0 C 44 % 1014,7 hPa 0,0 l/m 0,0 km/h (0 Bft) S 180 0 min 6,5 C 19,0 C
10.09.2012 21:24 18,8 C 45 % 1014,7 hPa 0,0 l/m 0,0 km/h (0 Bft) S 180 0 min 6,6 C 18,8 C
10.09.2012 21:29 18,8 C 45 % 1014,7 hPa 0,0 l/m 0,0 km/h (0 Bft) S 180 0 min 6,6 C 18,8 C
10.09.2012 21:34 18,7 C 45 % 1014,7 hPa 0,0 l/m 0,0 km/h (0 Bft) S 180 0 min 6,5 C 18,7 C
10.09.2012 21:39 18,4 C 46 % 1014,7 hPa 0,0 l/m 0,0 km/h (0 Bft) S 180 0 min 6,6 C 18,4 C
10.09.2012 21:44 18,3 C 46 % 1014,7 hPa 0,0 l/m 0,0 km/h (0 Bft) S 180 0 min 6,5 C 18,3 C
10.09.2012 21:49 18,2 C 46 % 1014,7 hPa 0,0 l/m 0,0 km/h (0 Bft) S 180 0 min 6,4 C 18,2 C
10.09.2012 21:54 18,1 C 47 % 1014,7 hPa 0,0 l/m 0,0 km/h (0 Bft) S 180 0 min 6,6 C 18,1 C
10.09.2012 21:59 18,0 C 47 % 1014,7 hPa 0,0 l/m 0,0 km/h (0 Bft) S 180 0 min 6,5 C 18,0 C
10.09.2012 22:03 17,9 C 48 % 1014,7 hPa 0,0 l/m 0,0 km/h (0 Bft) S 180 0 min 6,7 C 17,9 C
10.09.2012 22:08 17,8 C 48 % 1015,7 hPa 0,0 l/m 0,0 km/h (0 Bft) S 180 0 min 6,6 C 17,8 C
10.09.2012 22:13 17,5 C 48 % 1015,7 hPa 0,0 l/m 0,0 km/h (0 Bft) S 180 0 min 6,4 C 17,5 C
10.09.2012 22:18 17,6 C 49 % 1015,7 hPa 0,0 l/m 0,0 km/h (0 Bft) S 180 0 min 6,8 C 17,6 C
10.09.2012 22:23 17,6 C 49 % 1015,7 hPa 0,0 l/m 0,0 km/h (0 Bft) S 180 0 min 6,8 C 17,6 C
10.09.2012 22:28 17,7 C 50 % 1015,7 hPa 0,0 l/m 0,0 km/h (0 Bft) S 180 0 min 7,1 C 17,7 C
10.09.2012 22:33 17,7 C 50 % 1015,7 hPa 0,0 l/m 0,0 km/h (0 Bft) S 180 0 min 7,1 C 17,7 C
10.09.2012 22:38 17,7 C 50 % 1015,7 hPa 0,0 l/m 0,0 km/h (0 Bft) S 180 0 min 7,1 C 17,7 C
10.09.2012 22:43 17,7 C 50 % 1015,7 hPa 0,0 l/m 0,0 km/h (0 Bft) S 180 0 min 7,1 C 17,7 C
10.09.2012 22:48 17,7 C 50 % 1014,7 hPa 0,0 l/m 0,0 km/h (0 Bft) S 180 0 min 7,1 C 17,7 C
10.09.2012 22:53 17,6 C 50 % 1014,7 hPa 0,0 l/m 0,0 km/h (0 Bft) S 180 0 min 7,1 C 17,6 C
10.09.2012 22:58 17,5 C 50 % 1014,7 hPa 0,0 l/m 0,0 km/h (0 Bft) S 180 0 min 7,0 C 17,5 C
10.09.2012 23:03 17,5 C 51 % 1014,7 hPa 0,0 l/m 0,0 km/h (0 Bft) S 180 0 min 7,3 C 17,5 C
10.09.2012 23:08 17,4 C 51 % 1014,7 hPa 0,0 l/m 0,0 km/h (0 Bft) S 180 0 min 7,2 C 17,4 C
10.09.2012 23:13 17,2 C 51 % 1014,7 hPa 0,0 l/m 0,0 km/h (0 Bft) S 180 0 min 7,0 C 17,2 C
10.09.2012 23:18 17,1 C 51 % 1014,7 hPa 0,0 l/m 0,0 km/h (0 Bft) S 180 0 min 6,9 C 17,1 C
10.09.2012 23:23 17,0 C 51 % 1014,7 hPa 0,0 l/m 0,0 km/h (0 Bft) S 180 0 min 6,8 C 17,0 C
10.09.2012 23:28 16,8 C 52 % 1014,7 hPa 0,0 l/m 0,0 km/h (0 Bft) S 180 0 min 6,9 C 16,8 C
10.09.2012 23:33 16,7 C 53 % 1014,7 hPa 0,0 l/m 0,0 km/h (0 Bft) S 180 0 min 7,1 C 16,7 C
10.09.2012 23:38 16,6 C 53 % 1014,7 hPa 0,0 l/m 0,0 km/h (0 Bft) S 180 0 min 7,0 C 16,6 C
10.09.2012 23:43 16,6 C 53 % 1014,7 hPa 0,0 l/m 0,0 km/h (0 Bft) S 180 0 min 7,0 C 16,6 C
10.09.2012 23:48 16,4 C 53 % 1014,7 hPa 0,0 l/m 0,0 km/h (0 Bft) S 180 0 min 6,8 C 16,4 C
10.09.2012 23:53 16,3 C 53 % 1014,7 hPa 0,0 l/m 0,0 km/h (0 Bft) S 180 0 min 6,7 C 16,3 C
10.09.2012 23:58 16,2 C 53 % 1014,7 hPa 0,0 l/m 0,0 km/h (0 Bft) S 180 0 min 6,6 C 16,2 C
_ Min-Zeit 00:03 17:03 00:03 - 00:03 - - - 06:18 06:18
Minimum _ 0,0 C 24 % 1014,7 hPa - 0,0 km/h (0 Bft) - - - 3,8 C 9,6 C
_ Max-Zeit 16:59 07:29 08:18 00:03 15:19 - - 00:03 12:13 16:59
Maximum _ 31,1 C 71 % 1015,7 hPa 0,0 l/m 18,3 km/h
N-NW (3 Bft)
- - 0 min 13,3 C 31,0 C
Durchschnitt _ 19,5 C 50 % 1015,0 hPa #0,0 l/m 2,4 km/h (1 Bft) NW - #0 min. 7,8 C 19,4 C